Time;durP1;ratioP1;P1;durP2;ratioP2;P2;SDS_P1;SDS_P2;PMS_P1;PMS_P2;Temp;Humidity;BMP_temperature;BMP_pressure;BME280_temperature;BME280_humidity;BME280_pressure;Samples;Min_cycle;Max_cycle;Signal;HPM_P1;HPM_P2
2021/08/29 00:01:30;;;;;;;0.10;0.10;;;11.60;99.90;;;;;;5020846;28;20065;-91
2021/08/29 00:03:56;;;;;;;0.10;0.10;;;11.50;99.90;;;;;;5020305;28;20033;-91
2021/08/29 00:06:22;;;;;;;0.10;0.10;;;11.60;99.90;;;;;;5020009;28;20493;-90
2021/08/29 00:08:47;;;;;;;0.20;0.20;;;11.60;99.90;;;;;;5020200;28;20021;-90
2021/08/29 00:11:13;;;;;;;0.13;0.13;;;11.60;99.90;;;;;;5020121;28;20025;-91
2021/08/29 00:13:39;;;;;;;0.10;0.10;;;11.60;99.90;;;;;;5020118;28;20060;-91
2021/08/29 00:16:04;;;;;;;0.10;0.10;;;11.60;99.90;;;;;;5020023;28;20048;-91
2021/08/29 00:18:30;;;;;;;0.10;0.10;;;11.70;99.90;;;;;;5019772;28;20043;-91
2021/08/29 00:20:56;;;;;;;0.20;0.20;;;11.70;99.90;;;;;;5019737;28;20549;-91
2021/08/29 00:23:22;;;;;;;0.15;0.15;;;11.70;99.90;;;;;;5019959;28;20052;-91
2021/08/29 00:25:47;;;;;;;0.10;0.10;;;11.50;99.90;;;;;;5019697;28;20116;-91
2021/08/29 00:28:13;;;;;;;0.10;0.10;;;11.60;99.90;;;;;;5019805;28;20023;-91
2021/08/29 00:30:39;;;;;;;0.30;0.30;;;11.50;99.90;;;;;;5030833;28;20072;-91
2021/08/29 00:33:04;;;;;;;0.28;0.28;;;11.20;99.90;;;;;;5037958;28;20037;-91
2021/08/29 00:35:30;;;;;;;0.10;0.10;;;11.10;99.90;;;;;;5020124;28;20394;-91
2021/08/29 00:37:57;;;;;;;0.10;0.10;;;11.10;99.90;;;;;;5019462;28;20021;-92
2021/08/29 00:40:23;;;;;;;0.20;0.20;;;11.20;99.90;;;;;;5019781;28;20025;-92
2021/08/29 00:42:51;;;;;;;0.20;0.20;;;11.30;99.90;;;;;;5019531;28;20021;-91
2021/08/29 00:45:21;;;;;;;0.10;0.10;;;11.30;99.90;;;;;;5019397;28;20091;-92
2021/08/29 00:47:47;;;;;;;0.10;0.10;;;11.30;99.90;;;;;;5018964;28;20490;-92
2021/08/29 00:50:12;;;;;;;0.10;0.10;;;11.30;99.90;;;;;;5019269;28;20032;-92
2021/08/29 00:52:39;;;;;;;0.10;0.10;;;11.50;99.90;;;;;;5019371;28;20017;-92
2021/08/29 00:55:06;;;;;;;0.10;0.10;;;11.30;99.90;;;;;;5019150;28;20036;-92
2021/08/29 00:57:32;;;;;;;0.15;0.15;;;11.30;99.90;;;;;;5019176;28;20500;-91
2021/08/29 00:59:58;;;;;;;0.20;0.20;;;11.30;99.90;;;;;;5018941;28;20020;-91
2021/08/29 01:02:26;;;;;;;0.10;0.10;;;11.30;99.90;;;;;;5018963;28;20033;-92
2021/08/29 01:05:06;;;;;;;0.10;0.10;;;11.30;99.90;;;;;;5019164;28;20021;-92
2021/08/29 01:07:45;;;;;;;0.10;0.10;;;11.40;99.90;;;;;;5019098;28;20071;-92
2021/08/29 01:10:15;;;;;;;0.10;0.10;;;11.30;99.90;;;;;;5019220;28;20512;-92
2021/08/29 01:12:44;;;;;;;0.20;0.20;;;11.30;99.90;;;;;;5018994;28;20032;-91
2021/08/29 01:15:11;;;;;;;0.10;0.10;;;11.30;99.90;;;;;;5019165;28;20029;-92
2021/08/29 01:17:38;;;;;;;0.10;0.10;;;11.30;99.90;;;;;;5018731;28;20552;-92
2021/08/29 01:20:17;;;;;;;0.15;0.15;;;11.40;99.90;;;;;;5018787;28;20043;-92
2021/08/29 01:22:45;;;;;;;0.20;0.20;;;11.40;99.90;;;;;;5019099;28;20060;-91
2021/08/29 01:25:16;;;;;;;0.15;0.15;;;11.30;99.90;;;;;;5018802;28;20025;-92
2021/08/29 01:27:57;;;;;;;0.20;0.20;;;11.30;99.90;;;;;;5018696;28;20031;-92
2021/08/29 01:30:23;;;;;;;0.20;0.20;;;11.30;99.90;;;;;;5019004;28;20116;-92
2021/08/29 01:32:52;;;;;;;0.10;0.10;;;11.30;99.90;;;;;;5018617;28;20450;-92
2021/08/29 01:35:18;;;;;;;0.10;0.10;;;11.20;99.90;;;;;;5018823;28;20017;-91
2021/08/29 01:37:44;;;;;;;0.10;0.10;;;11.30;99.90;;;;;;5018584;28;20071;-92
2021/08/29 01:40:10;;;;;;;0.17;0.17;;;11.30;99.90;;;;;;5018607;28;20073;-91
2021/08/29 01:42:38;;;;;;;0.10;0.10;;;11.20;99.90;;;;;;5018284;28;20025;-92
2021/08/29 01:45:04;;;;;;;0.10;0.10;;;11.20;99.90;;;;;;5018365;28;20086;-92
2021/08/29 01:47:30;;;;;;;0.10;0.10;;;11.10;99.90;;;;;;5018407;28;20025;-91
2021/08/29 01:49:57;;;;;;;0.10;0.10;;;11.20;99.90;;;;;;5018175;28;20028;-91
2021/08/29 01:52:23;;;;;;;0.10;0.10;;;11.20;99.90;;;;;;5018404;28;20021;-92
2021/08/29 01:54:49;;;;;;;0.10;0.10;;;11.20;99.90;;;;;;5018387;28;20029;-91
2021/08/29 01:57:14;;;;;;;0.10;0.10;;;11.20;99.90;;;;;;5018327;28;20053;-92
2021/08/29 01:59:44;;;;;;;0.10;0.10;;;11.20;99.90;;;;;;5018033;28;20363;-92
2021/08/29 02:02:11;;;;;;;0.10;0.10;;;11.30;99.90;;;;;;5018086;28;20113;-92
2021/08/29 02:04:37;;;;;;;0.00;0.00;;;11.30;99.90;;;;;;5018139;28;20027;-92
2021/08/29 02:07:03;;;;;;;0.10;0.10;;;11.30;99.90;;;;;;5018321;28;20025;-92
2021/08/29 02:09:31;;;;;;;0.10;0.10;;;11.30;99.90;;;;;;5018154;28;20028;-91
2021/08/29 02:11:57;;;;;;;0.10;0.10;;;11.30;99.90;;;;;;5018004;28;20436;-92
2021/08/29 02:14:33;;;;;;;0.10;0.10;;;11.30;99.90;;;;;;5018081;28;20017;-91
2021/08/29 02:17:00;;;;;;;0.10;0.10;;;11.30;99.90;;;;;;5018519;28;20119;-92
2021/08/29 02:19:30;;;;;;;0.10;0.10;;;11.40;99.90;;;;;;5018018;28;20029;-92
2021/08/29 02:21:57;;;;;;;0.10;0.10;;;11.40;99.90;;;;;;5018157;28;20147;-92
2021/08/29 02:24:28;;;;;;;0.10;0.10;;;11.30;99.90;;;;;;5018169;28;20108;-92
2021/08/29 02:26:54;;;;;;;0.10;0.10;;;11.30;99.90;;;;;;5018005;28;20506;-92
2021/08/29 02:29:20;;;;;;;0.10;0.10;;;11.40;99.90;;;;;;5017797;28;20064;-92
2021/08/29 02:31:48;;;;;;;0.30;0.30;;;11.40;99.90;;;;;;5021651;28;20551;-92
2021/08/29 02:34:14;;;;;;;0.30;0.30;;;11.40;99.90;;;;;;5021889;28;20095;-91
2021/08/29 02:36:41;;;;;;;0.10;0.10;;;11.40;99.90;;;;;;5021756;28;20399;-92
2021/08/29 02:39:08;;;;;;;0.10;0.10;;;11.40;99.90;;;;;;5021641;28;20394;-92
2021/08/29 02:41:35;;;;;;;0.10;0.10;;;11.30;99.90;;;;;;5021710;28;20037;-92
2021/08/29 02:44:02;;;;;;;0.10;0.10;;;11.30;99.90;;;;;;5021705;28;20029;-92
2021/08/29 02:46:28;;;;;;;0.10;0.10;;;11.30;99.90;;;;;;5021647;28;20028;-92
2021/08/29 02:48:55;;;;;;;0.10;0.10;;;11.30;99.90;;;;;;5021405;28;20061;-91
2021/08/29 02:51:23;;;;;;;0.10;0.10;;;11.20;99.90;;;;;;5021938;28;20394;-91
2021/08/29 02:53:49;;;;;;;0.10;0.10;;;11.20;99.90;;;;;;5021512;28;20025;-91
2021/08/29 02:56:18;;;;;;;0.10;0.10;;;11.20;99.90;;;;;;5021871;28;20033;-91
2021/08/29 02:58:45;;;;;;;0.10;0.10;;;11.20;99.90;;;;;;5021995;28;20086;-91
2021/08/29 03:01:11;;;;;;;0.28;0.28;;;11.30;99.90;;;;;;5027954;28;20049;-90
2021/08/29 03:03:37;;;;;;;0.10;0.10;;;11.20;99.90;;;;;;5036035;28;20037;-91
2021/08/29 03:06:03;;;;;;;0.10;0.10;;;11.30;99.90;;;;;;5022151;28;20116;-91
2021/08/29 03:08:29;;;;;;;0.10;0.10;;;11.40;99.90;;;;;;5021227;28;20060;-91
2021/08/29 03:10:55;;;;;;;0.10;0.10;;;11.40;99.90;;;;;;5021187;28;20440;-91
2021/08/29 03:13:21;;;;;;;0.10;0.10;;;11.40;99.90;;;;;;5021144;28;20025;-91
2021/08/29 03:15:47;;;;;;;0.13;0.13;;;11.50;99.90;;;;;;5021103;28;20159;-91
2021/08/29 03:18:14;;;;;;;0.10;0.10;;;11.50;99.90;;;;;;5021021;28;20111;-91
2021/08/29 03:20:41;;;;;;;0.22;0.22;;;11.60;99.90;;;;;;5020933;28;20029;-91
2021/08/29 03:23:08;;;;;;;2.35;2.15;;;11.60;99.90;;;;;;5020705;28;20063;-91
2021/08/29 03:25:34;;;;;;;0.20;0.20;;;11.60;99.90;;;;;;5020678;28;20021;-91
2021/08/29 03:28:00;;;;;;;0.50;0.47;;;11.70;99.90;;;;;;5020692;28;20025;-91
2021/08/29 03:30:26;;;;;;;0.10;0.10;;;11.80;99.90;;;;;;5020744;28;20021;-91
2021/08/29 03:32:51;;;;;;;0.10;0.10;;;11.90;99.90;;;;;;5020746;28;20021;-91
2021/08/29 03:35:18;;;;;;;0.30;0.30;;;11.80;99.90;;;;;;5020793;28;20029;-91
2021/08/29 03:37:45;;;;;;;0.08;0.08;;;11.80;99.90;;;;;;5020789;28;20056;-91
2021/08/29 03:40:11;;;;;;;0.10;0.10;;;11.80;99.90;;;;;;5020607;28;20025;-91
2021/08/29 03:42:38;;;;;;;0.10;0.10;;;11.70;99.90;;;;;;5020315;28;20044;-91
2021/08/29 03:45:07;;;;;;;0.20;0.20;;;11.70;99.90;;;;;;5020691;28;20462;-92
2021/08/29 03:47:34;;;;;;;0.13;0.13;;;11.70;99.90;;;;;;5020548;28;20017;-92
2021/08/29 03:50:01;;;;;;;0.10;0.10;;;11.70;99.90;;;;;;5020363;28;20021;-91
2021/08/29 03:52:26;;;;;;;0.32;0.32;;;11.60;99.90;;;;;;5020432;28;20565;-91
2021/08/29 03:54:53;;;;;;;0.10;0.10;;;11.60;99.90;;;;;;5020433;28;20044;-92
2021/08/29 03:57:18;;;;;;;1.13;0.82;;;11.50;99.90;;;;;;5020431;28;20033;-92
2021/08/29 03:59:44;;;;;;;0.10;0.10;;;11.50;99.90;;;;;;5020093;28;20028;-91
2021/08/29 04:02:10;;;;;;;0.10;0.10;;;11.50;99.90;;;;;;5034109;23;20033;-76
2021/08/29 04:04:37;;;;;;;0.17;0.17;;;11.40;99.90;;;;;;5018833;28;20017;-76
2021/08/29 04:07:05;;;;;;;0.13;0.13;;;11.40;99.90;;;;;;5053919;28;20033;-76
2021/08/29 04:09:32;;;;;;;0.68;0.68;;;11.30;99.90;;;;;;5035874;28;20021;-76
2021/08/29 04:11:59;;;;;;;0.10;0.10;;;11.30;99.90;;;;;;5035960;28;20543;-76
2021/08/29 04:14:27;;;;;;;0.10;0.10;;;11.30;99.90;;;;;;5035775;28;20489;-76
2021/08/29 04:16:55;;;;;;;0.10;0.10;;;11.30;99.90;;;;;;5053754;28;20068;-76
2021/08/29 04:19:23;;;;;;;0.10;0.10;;;11.30;99.90;;;;;;5035666;28;20047;-76
2021/08/29 04:21:49;;;;;;;0.30;0.30;;;11.20;99.90;;;;;;5035902;28;20052;-76
2021/08/29 04:24:15;;;;;;;0.17;0.17;;;11.20;99.90;;;;;;5035811;28;20029;-76
2021/08/29 04:26:41;;;;;;;0.10;0.10;;;11.20;99.90;;;;;;5053464;28;20498;-76
2021/08/29 04:29:07;;;;;;;0.10;0.10;;;11.20;99.90;;;;;;5053237;28;20052;-76
2021/08/29 04:31:34;;;;;;;0.10;0.10;;;11.30;99.90;;;;;;5053427;28;20025;-76
2021/08/29 04:34:05;;;;;;;0.10;0.10;;;11.30;99.90;;;;;;5035617;28;20017;-76
2021/08/29 04:36:32;;;;;;;0.10;0.10;;;11.20;99.90;;;;;;5053186;28;20472;-76
2021/08/29 04:38:59;;;;;;;0.10;0.10;;;11.10;99.90;;;;;;5053096;28;20549;-76
2021/08/29 04:41:25;;;;;;;0.22;0.22;;;11.10;99.90;;;;;;5053205;28;20075;-76
2021/08/29 04:43:51;;;;;;;0.20;0.20;;;11.10;99.90;;;;;;5018802;28;20025;-76
2021/08/29 04:46:16;;;;;;;0.10;0.10;;;11.10;99.90;;;;;;5034897;28;20025;-76
2021/08/29 04:48:42;;;;;;;0.10;0.10;;;11.20;99.90;;;;;;5052892;28;20029;-76
2021/08/29 04:51:08;;;;;;;0.30;0.30;;;11.20;99.90;;;;;;5052989;28;20071;-76
2021/08/29 04:53:34;;;;;;;0.20;0.20;;;11.20;99.90;;;;;;5034538;28;20404;-76
2021/08/29 04:56:00;;;;;;;0.10;0.10;;;11.20;99.90;;;;;;5034840;28;20032;-76
2021/08/29 04:58:26;;;;;;;0.10;0.10;;;11.20;99.90;;;;;;5052722;28;20028;-76
2021/08/29 05:00:51;;;;;;;0.10;0.10;;;11.30;99.90;;;;;;5035060;28;20029;-76
2021/08/29 05:03:17;;;;;;;0.10;0.10;;;11.40;99.90;;;;;;5052803;28;20033;-74
2021/08/29 05:05:43;;;;;;;0.20;0.20;;;11.50;99.90;;;;;;5034657;28;20480;-74
2021/08/29 05:08:09;;;;;;;0.10;0.10;;;11.40;99.90;;;;;;5034768;28;20132;-74
2021/08/29 05:10:35;;;;;;;0.10;0.10;;;11.60;99.90;;;;;;5052726;28;20477;-74
2021/08/29 05:13:00;;;;;;;1.08;0.52;;;11.70;99.90;;;;;;5018301;28;20029;-74
2021/08/29 05:15:26;;;;;;;0.10;0.10;;;11.70;99.90;;;;;;5034623;28;20029;-73
2021/08/29 05:17:52;;;;;;;0.10;0.10;;;11.60;99.90;;;;;;5034603;28;20025;-74
2021/08/29 05:20:18;;;;;;;0.20;0.20;;;11.70;99.90;;;;;;5034530;28;20132;-72
2021/08/29 05:22:43;;;;;;;0.10;0.10;;;11.80;99.90;;;;;;5034681;28;20393;-74
2021/08/29 05:25:09;;;;;;;0.10;0.10;;;11.80;99.90;;;;;;5017941;28;20120;-74
2021/08/29 05:27:35;;;;;;;0.10;0.10;;;11.70;99.90;;;;;;5034543;28;20392;-72
2021/08/29 05:30:01;;;;;;;0.10;0.10;;;11.70;99.90;;;;;;5017920;28;20027;-74
2021/08/29 05:32:27;;;;;;;0.20;0.20;;;11.70;99.90;;;;;;5052438;28;20029;-74
2021/08/29 05:34:53;;;;;;;0.30;0.30;;;11.70;99.90;;;;;;5017893;28;20476;-74
2021/08/29 05:37:18;;;;;;;0.17;0.17;;;11.80;99.90;;;;;;5034506;28;20523;-74
2021/08/29 05:39:44;;;;;;;0.10;0.10;;;11.80;99.90;;;;;;5034471;28;20056;-73
2021/08/29 05:42:10;;;;;;;0.10;0.10;;;11.80;99.90;;;;;;5034156;28;20104;-74
2021/08/29 05:44:36;;;;;;;0.28;0.28;;;11.80;99.90;;;;;;5034253;28;20021;-74
2021/08/29 05:47:01;;;;;;;0.20;0.20;;;11.70;99.90;;;;;;5034252;28;20194;-74
2021/08/29 05:49:27;;;;;;;0.10;0.10;;;11.80;99.90;;;;;;5034219;28;20354;-74
2021/08/29 05:51:53;;;;;;;0.10;0.10;;;11.80;99.90;;;;;;5034108;28;20036;-74
2021/08/29 05:54:19;;;;;;;0.13;0.13;;;11.80;99.90;;;;;;5052114;28;20028;-74
2021/08/29 05:56:45;;;;;;;0.22;0.22;;;11.90;99.90;;;;;;5034105;28;20476;-73
2021/08/29 05:59:11;;;;;;;0.10;0.10;;;11.90;99.90;;;;;;5051879;28;20036;-74
2021/08/29 06:01:37;;;;;;;0.10;0.10;;;12.10;99.90;;;;;;5033966;28;20025;-74
2021/08/29 06:04:03;;;;;;;0.30;0.30;;;12.20;99.90;;;;;;5034065;28;20033;-73
2021/08/29 06:06:33;;;;;;;0.10;0.10;;;12.10;99.90;;;;;;5033934;28;20454;-74
2021/08/29 06:08:58;;;;;;;0.10;0.10;;;12.10;99.90;;;;;;5034052;28;20510;-74
2021/08/29 06:11:24;;;;;;;0.22;0.22;;;12.10;99.90;;;;;;5033731;28;20022;-74
2021/08/29 06:13:50;;;;;;;0.10;0.10;;;12.10;99.90;;;;;;5033935;28;20044;-74
2021/08/29 06:16:16;;;;;;;0.10;0.10;;;12.20;99.90;;;;;;5051205;28;20037;-74
2021/08/29 06:18:41;;;;;;;0.22;0.22;;;12.30;99.90;;;;;;5051774;28;20500;-73
2021/08/29 06:21:07;;;;;;;0.10;0.10;;;12.20;99.90;;;;;;5051632;28;20100;-73
2021/08/29 06:23:33;;;;;;;0.10;0.10;;;12.10;99.90;;;;;;5033757;28;20439;-74
2021/08/29 06:25:59;;;;;;;0.10;0.10;;;12.00;99.90;;;;;;5051456;28;20025;-74
2021/08/29 06:28:24;;;;;;;0.10;0.10;;;11.90;99.90;;;;;;5051631;28;20044;-74
2021/08/29 06:30:50;;;;;;;0.28;0.28;;;11.90;99.90;;;;;;5051498;28;20530;-74
2021/08/29 06:33:16;;;;;;;0.10;0.10;;;11.80;99.90;;;;;;5033791;28;20017;-73
2021/08/29 06:35:42;;;;;;;0.10;0.10;;;11.80;99.90;;;;;;5033868;28;20500;-74
2021/08/29 06:38:07;;;;;;;0.20;0.20;;;11.80;99.90;;;;;;5033503;28;20032;-74
2021/08/29 06:40:34;;;;;;;0.10;0.10;;;11.80;99.90;;;;;;5033744;28;20021;-74
2021/08/29 06:42:59;;;;;;;0.10;0.10;;;11.90;99.90;;;;;;5051454;28;20032;-74
2021/08/29 06:45:25;;;;;;;0.65;0.65;;;12.00;99.90;;;;;;5051399;28;20021;-74
2021/08/29 06:47:51;;;;;;;0.10;0.10;;;12.10;99.90;;;;;;5033653;28;20024;-74
2021/08/29 06:50:17;;;;;;;0.10;0.10;;;12.00;99.90;;;;;;5033733;28;20025;-74
2021/08/29 06:52:43;;;;;;;0.10;0.10;;;12.00;99.90;;;;;;5033578;28;20071;-74
2021/08/29 06:55:09;;;;;;;0.10;0.10;;;12.00;99.90;;;;;;5051342;28;20017;-74
2021/08/29 06:57:34;;;;;;;0.10;0.10;;;12.00;99.90;;;;;;5051366;28;20021;-74
2021/08/29 07:00:00;;;;;;;0.10;0.10;;;12.20;99.90;;;;;;5051418;28;20028;-74
2021/08/29 07:02:26;;;;;;;0.85;0.55;;;12.30;99.90;;;;;;5016653;28;20025;-74
2021/08/29 07:04:51;;;;;;;0.10;0.10;;;12.20;99.90;;;;;;5051257;28;20029;-74
2021/08/29 07:07:17;;;;;;;0.10;0.10;;;12.30;99.90;;;;;;5051305;28;20744;-73
2021/08/29 07:09:43;;;;;;;0.10;0.10;;;12.20;99.90;;;;;;5050527;28;20032;-74
2021/08/29 07:12:10;;;;;;;0.10;0.10;;;12.30;99.90;;;;;;5065894;28;20381;-74
2021/08/29 07:14:36;;;;;;;0.20;0.20;;;12.50;99.90;;;;;;5038164;28;20390;-74
2021/08/29 07:17:03;;;;;;;0.20;0.20;;;12.60;99.90;;;;;;5063204;28;20040;-74
2021/08/29 07:19:28;;;;;;;0.00;0.00;;;12.50;99.90;;;;;;5035040;28;20041;-74
2021/08/29 07:21:54;;;;;;;0.10;0.10;;;12.50;99.90;;;;;;5059019;28;20476;-74
2021/08/29 07:24:20;;;;;;;0.10;0.10;;;12.40;99.90;;;;;;5037888;28;20017;-74
2021/08/29 07:26:46;;;;;;;0.10;0.10;;;12.50;99.90;;;;;;5066932;28;20032;-74
2021/08/29 07:29:11;;;;;;;0.10;0.10;;;12.50;99.90;;;;;;5051857;28;20021;-76
2021/08/29 07:31:37;;;;;;;0.10;0.10;;;12.40;99.90;;;;;;5020031;28;20017;-74
2021/08/29 07:34:03;;;;;;;0.10;0.10;;;12.40;99.90;;;;;;5054632;28;20468;-75
2021/08/29 07:36:29;;;;;;;0.10;0.10;;;12.50;99.90;;;;;;5036642;28;20028;-75
2021/08/29 07:38:55;;;;;;;0.43;0.43;;;12.50;99.90;;;;;;5061474;28;20051;-75
2021/08/29 07:41:21;;;;;;;0.10;0.10;;;12.30;99.90;;;;;;5059987;28;20055;-75
2021/08/29 07:43:47;;;;;;;0.20;0.20;;;12.30;99.90;;;;;;5036399;28;20464;-75
2021/08/29 07:46:13;;;;;;;0.10;0.10;;;12.30;99.90;;;;;;5036060;28;20116;-75
2021/08/29 07:48:39;;;;;;;0.10;0.10;;;12.30;99.90;;;;;;5036207;28;20049;-75
2021/08/29 07:51:05;;;;;;;0.32;0.30;;;12.30;99.90;;;;;;5054346;28;20469;-74
2021/08/29 07:53:30;;;;;;;0.10;0.10;;;12.20;99.90;;;;;;5054225;28;20025;-74
2021/08/29 07:55:56;;;;;;;0.10;0.10;;;12.10;99.90;;;;;;5060914;28;20105;-75
2021/08/29 07:58:22;;;;;;;0.10;0.10;;;12.00;99.90;;;;;;5056048;28;20103;-75
2021/08/29 08:00:48;;;;;;;0.55;0.40;;;12.00;99.90;;;;;;5068413;28;20472;-74
2021/08/29 08:03:13;;;;;;;0.10;0.10;;;12.00;99.90;;;;;;5051062;28;20047;-75
2021/08/29 08:05:39;;;;;;;0.10;0.10;;;11.90;99.90;;;;;;5046460;28;20495;-74
2021/08/29 08:08:05;;;;;;;0.10;0.10;;;12.00;99.90;;;;;;5042473;28;20029;-74
2021/08/29 08:10:31;;;;;;;0.88;0.60;;;12.20;99.90;;;;;;5020555;28;20044;-75
2021/08/29 08:12:58;;;;;;;0.10;0.10;;;12.30;99.90;;;;;;5044807;28;20108;-75
2021/08/29 08:15:24;;;;;;;0.10;0.10;;;12.20;99.90;;;;;;5052435;28;20021;-76
2021/08/29 08:17:50;;;;;;;0.30;0.30;;;12.20;99.90;;;;;;5052203;28;20100;-75
2021/08/29 08:20:16;;;;;;;0.30;0.30;;;12.10;99.90;;;;;;5052691;28;20108;-74
2021/08/29 08:22:42;;;;;;;0.10;0.10;;;12.20;99.90;;;;;;5027122;28;20660;-74
2021/08/29 08:25:09;;;;;;;0.47;0.38;;;12.00;99.90;;;;;;5052573;28;20412;-75
2021/08/29 08:27:35;;;;;;;0.10;0.10;;;12.10;99.90;;;;;;5051182;28;20021;-74
2021/08/29 08:30:01;;;;;;;0.55;0.55;;;12.10;99.90;;;;;;5052399;28;20021;-73
2021/08/29 08:32:28;;;;;;;0.10;0.10;;;12.10;99.90;;;;;;5042837;28;20025;-73
2021/08/29 08:34:53;;;;;;;0.10;0.10;;;12.20;99.90;;;;;;5034753;28;20063;-73
2021/08/29 08:37:19;;;;;;;0.05;0.05;;;12.20;99.90;;;;;;5028477;28;20392;-73
2021/08/29 08:39:45;;;;;;;0.10;0.10;;;12.20;99.90;;;;;;5051918;28;20040;-73
2021/08/29 08:42:11;;;;;;;0.17;0.17;;;12.20;99.90;;;;;;5049823;28;20048;-73
2021/08/29 08:44:38;;;;;;;0.10;0.10;;;12.10;99.90;;;;;;5039640;28;20031;-73
2021/08/29 08:47:08;;;;;;;0.10;0.10;;;12.10;99.90;;;;;;5040495;28;20480;-73
2021/08/29 08:49:34;;;;;;;0.10;0.10;;;12.20;99.90;;;;;;5051817;28;20029;-73
2021/08/29 08:52:04;;;;;;;0.40;0.40;;;12.00;99.90;;;;;;5045449;28;20022;-73
2021/08/29 08:54:30;;;;;;;0.10;0.10;;;11.80;99.90;;;;;;5038559;28;20115;-73
2021/08/29 08:56:58;;;;;;;0.20;0.20;;;11.90;99.90;;;;;;5051761;28;20029;-73
2021/08/29 08:59:24;;;;;;;0.10;0.10;;;12.10;99.90;;;;;;5051158;28;20029;-73
2021/08/29 09:01:50;;;;;;;0.10;0.10;;;12.10;99.90;;;;;;5038791;28;20051;-73
2021/08/29 09:04:16;;;;;;;0.10;0.10;;;12.40;99.90;;;;;;5040531;28;20116;-73
2021/08/29 09:06:43;;;;;;;0.10;0.10;;;12.50;99.90;;;;;;5045326;28;20496;-73
2021/08/29 09:09:08;;;;;;;0.60;0.60;;;12.60;99.90;;;;;;5051047;28;20021;-73
2021/08/29 09:11:35;;;;;;;0.10;0.10;;;12.50;99.90;;;;;;5051774;28;20092;-73
2021/08/29 09:14:01;;;;;;;0.10;0.10;;;12.40;99.90;;;;;;5040220;28;20554;-73
2021/08/29 09:16:29;;;;;;;0.10;0.10;;;12.40;99.90;;;;;;5041307;28;20035;-73
2021/08/29 09:18:57;;;;;;;0.45;0.40;;;12.50;99.90;;;;;;5037654;28;20585;-73
2021/08/29 09:21:43;;;;;;;0.10;0.10;;;12.50;99.90;;;;;;5051408;28;20078;-73
2021/08/29 09:24:11;;;;;;;1.48;1.38;;;12.60;99.90;;;;;;5015536;28;20037;-73
2021/08/29 09:26:41;;;;;;;0.50;0.30;;;12.50;99.90;;;;;;5040563;28;20025;-73
2021/08/29 09:29:15;;;;;;;0.10;0.10;;;12.60;99.90;;;;;;5044264;28;20660;-73
2021/08/29 09:31:47;;;;;;;0.10;0.10;;;12.70;99.90;;;;;;5047684;28;20057;-73
2021/08/29 09:34:17;;;;;;;0.22;0.22;;;12.70;99.90;;;;;;5022753;28;20163;-73
2021/08/29 09:36:43;;;;;;;0.52;0.45;;;12.70;99.90;;;;;;5043627;28;20071;-73
2021/08/29 09:39:20;;;;;;;0.20;0.20;;;12.80;99.90;;;;;;5054586;28;20021;-74
2021/08/29 09:41:46;;;;;;;0.30;0.30;;;12.80;99.90;;;;;;5040440;28;20395;-74
2021/08/29 09:44:18;;;;;;;0.10;0.10;;;12.70;99.90;;;;;;5050468;28;20029;-74
2021/08/29 09:46:54;;;;;;;0.60;0.60;;;12.70;99.90;;;;;;5023059;28;20119;-74
2021/08/29 09:49:30;;;;;;;0.10;0.10;;;12.80;99.90;;;;;;5050480;28;20082;-74
2021/08/29 09:51:59;;;;;;;0.10;0.10;;;12.90;99.90;;;;;;5050505;28;20055;-74
2021/08/29 09:54:43;;;;;;;0.75;0.75;;;13.00;99.90;;;;;;5050526;28;20019;-74
2021/08/29 09:57:12;;;;;;;1.38;0.93;;;13.10;99.90;;;;;;5039976;28;20043;-74
2021/08/29 09:59:42;;;;;;;0.10;0.10;;;13.10;99.90;;;;;;5049005;28;20013;-74
2021/08/29 10:02:10;;;;;;;0.57;0.47;;;13.10;99.90;;;;;;5034645;28;20079;-74
2021/08/29 10:04:35;;;;;;;0.10;0.10;;;13.20;99.90;;;;;;5041176;28;20028;-74
2021/08/29 10:07:12;;;;;;;0.17;0.17;;;13.20;99.90;;;;;;5050971;28;20021;-74
2021/08/29 10:09:39;;;;;;;1.40;1.30;;;13.40;99.90;;;;;;5032061;28;20029;-74
2021/08/29 10:12:05;;;;;;;0.50;0.40;;;13.30;99.90;;;;;;5023102;28;20024;-74
2021/08/29 10:14:39;;;;;;;1.02;0.65;;;13.10;99.90;;;;;;5032831;28;20092;-74
2021/08/29 10:17:06;;;;;;;0.10;0.10;;;13.10;99.90;;;;;;5050660;28;20021;-74
2021/08/29 10:19:33;;;;;;;0.22;0.22;;;13.20;99.90;;;;;;5043775;28;20082;-74
2021/08/29 10:22:00;;;;;;;1.45;1.05;;;13.00;99.90;;;;;;5054648;23;20034;-91
2021/08/29 10:24:34;;;;;;;1.58;1.48;;;13.10;99.90;;;;;;4996797;28;20344;-92
2021/08/29 10:27:06;;;;;;;0.15;0.15;;;13.10;99.90;;;;;;5001781;28;20083;-92
2021/08/29 10:29:43;;;;;;;0.57;0.57;;;13.20;99.90;;;;;;5000538;28;20049;-92
2021/08/29 10:32:17;;;;;;;1.08;0.95;;;13.10;99.90;;;;;;4995461;28;20037;-92
2021/08/29 10:34:53;;;;;;;0.10;0.10;;;13.00;99.90;;;;;;4978140;28;20045;-93
2021/08/29 10:37:19;;;;;;;0.20;0.20;;;13.00;99.90;;;;;;5010829;28;20121;-92
2021/08/29 10:39:45;;;;;;;0.10;0.10;;;13.40;99.90;;;;;;4993985;28;20029;-93
2021/08/29 10:42:12;;;;;;;0.65;0.40;;;13.30;99.90;;;;;;4993935;28;20036;-93
2021/08/29 10:44:38;;;;;;;0.10;0.10;;;13.60;99.90;;;;;;4994219;28;20113;-93
2021/08/29 10:47:06;;;;;;;0.25;0.25;;;14.10;99.90;;;;;;5010493;28;20030;-93
2021/08/29 10:49:36;;;;;;;0.10;0.10;;;14.40;99.90;;;;;;4997926;28;20033;-92
2021/08/29 10:52:04;;;;;;;1.50;0.93;;;14.20;99.90;;;;;;5012953;28;20022;-93
2021/08/29 10:54:32;;;;;;;0.22;0.22;;;14.30;99.90;;;;;;4997935;28;20093;-93
2021/08/29 10:56:58;;;;;;;0.10;0.10;;;14.30;99.90;;;;;;4997617;28;20087;-93
2021/08/29 10:59:25;;;;;;;6.10;5.57;;;14.40;99.90;;;;;;4998145;28;20026;-93
2021/08/29 11:01:54;;;;;;;0.20;0.20;;;14.50;99.90;;;;;;5014027;28;20026;-93
2021/08/29 11:04:26;;;;;;;0.10;0.10;;;14.70;99.90;;;;;;5013431;28;20032;-93
2021/08/29 11:06:57;;;;;;;0.20;0.20;;;14.90;99.90;;;;;;4977497;28;20122;-93
2021/08/29 11:09:32;;;;;;;0.30;0.30;;;15.10;99.90;;;;;;5014098;28;20107;-94
2021/08/29 11:11:59;;;;;;;0.20;0.20;;;15.00;99.90;;;;;;4980609;28;20026;-93
2021/08/29 11:14:47;;;;;;;0.28;0.28;;;14.70;99.90;;;;;;5014014;28;20033;-93
2021/08/29 11:17:24;;;;;;;1.38;1.25;;;14.50;99.90;;;;;;5013695;28;20025;-93
2021/08/29 11:20:01;;;;;;;0.10;0.10;;;14.30;99.90;;;;;;4996585;28;20033;-93
2021/08/29 11:22:28;;;;;;;0.20;0.20;;;14.30;99.90;;;;;;4997497;28;20038;-92
2021/08/29 11:24:56;;;;;;;0.22;0.22;;;14.40;99.90;;;;;;4997355;28;20384;-93
2021/08/29 11:27:35;;;;;;;0.10;0.10;;;14.30;99.90;;;;;;4997614;28;20089;-93
2021/08/29 11:30:15;;;;;;;0.20;0.20;;;14.20;99.90;;;;;;4998287;28;20518;-93
2021/08/29 11:32:58;;;;;;;0.85;0.85;;;14.00;99.90;;;;;;5012568;28;20475;-92
2021/08/29 11:35:27;;;;;;;0.75;0.75;;;13.80;99.90;;;;;;4983204;28;20486;-93
2021/08/29 11:38:09;;;;;;;0.20;0.20;;;13.80;99.90;;;;;;5012874;28;20037;-92
2021/08/29 11:40:45;;;;;;;0.70;0.70;;;13.50;99.90;;;;;;4996453;28;20403;-92
2021/08/29 11:43:30;;;;;;;0.57;0.50;;;12.90;99.90;;;;;;4979889;28;20030;-92
2021/08/29 11:46:19;;;;;;;1.95;0.32;;;12.80;99.90;;;;;;5013863;28;20082;-92
2021/08/29 11:48:52;;;;;;;1.10;0.63;;;12.60;99.90;;;;;;5014443;28;20031;-92
2021/08/29 11:51:39;;;;;;;0.10;0.10;;;12.60;99.90;;;;;;5016867;28;20475;-92
2021/08/29 11:54:08;;;;;;;0.20;0.20;;;12.60;99.90;;;;;;5013602;28;20044;-92
2021/08/29 11:56:34;;;;;;;0.85;0.57;;;12.80;99.90;;;;;;5012103;28;20109;-93
2021/08/29 11:59:04;;;;;;;0.10;0.10;;;13.00;99.90;;;;;;4996325;28;20026;-92
2021/08/29 12:01:33;;;;;;;0.60;0.17;;;13.10;99.90;;;;;;4996156;28;20026;-92
2021/08/29 12:04:01;;;;;;;0.13;0.13;;;13.20;99.90;;;;;;5013089;28;20566;-93
2021/08/29 12:06:42;;;;;;;0.13;0.13;;;13.20;99.90;;;;;;5014749;28;20403;-92
2021/08/29 12:09:30;;;;;;;0.20;0.20;;;13.00;99.90;;;;;;4985042;28;20025;-92
2021/08/29 12:11:57;;;;;;;3.72;0.40;;;12.80;99.90;;;;;;5013067;28;20410;-92
2021/08/29 12:14:27;;;;;;;0.63;0.63;;;13.00;99.90;;;;;;5012285;28;20032;-93
2021/08/29 12:16:58;;;;;;;0.00;0.00;;;13.30;99.90;;;;;;5014647;28;20030;-92
2021/08/29 12:19:27;;;;;;;0.10;0.10;;;13.50;99.90;;;;;;5011846;28;20057;-92
2021/08/29 12:21:54;;;;;;;0.10;0.10;;;13.80;99.90;;;;;;4995402;28;20034;-92
2021/08/29 12:24:33;;;;;;;0.10;0.10;;;13.80;99.90;;;;;;5013032;28;20022;-93
2021/08/29 12:27:10;;;;;;;0.32;0.32;;;14.10;99.90;;;;;;4979620;28;20063;-92
2021/08/29 12:29:58;;;;;;;2.33;2.13;;;14.30;99.90;;;;;;4995597;28;20022;-92
2021/08/29 12:32:26;;;;;;;0.10;0.10;;;14.10;99.90;;;;;;4994027;28;20036;-93
2021/08/29 12:34:58;;;;;;;0.10;0.10;;;14.50;99.90;;;;;;4979249;28;20029;-93
2021/08/29 12:37:27;;;;;;;0.10;0.10;;;14.70;99.90;;;;;;5009723;28;20026;-93
2021/08/29 12:40:02;;;;;;;0.10;0.10;;;14.60;99.90;;;;;;4995641;28;20021;-93
2021/08/29 12:42:31;;;;;;;0.20;0.20;;;14.80;99.90;;;;;;4998413;28;20033;-93
2021/08/29 12:44:58;;;;;;;0.63;0.57;;;14.80;99.90;;;;;;5007453;28;20491;-93
2021/08/29 12:47:25;;;;;;;0.30;0.30;;;14.80;99.90;;;;;;4995089;28;20169;-93
2021/08/29 12:49:51;;;;;;;0.20;0.20;;;14.80;99.90;;;;;;5011246;28;20024;-92
2021/08/29 12:52:33;;;;;;;0.10;0.10;;;14.80;99.90;;;;;;4996519;28;20076;-93